Terminal Aerodrome Forecast
Issued by NWS

Home | Current Version | Previous Version | Text Only | Print | Product List | Glossary On
Versions: 1 2 3 4 5 6 7 8 9 10 11 12 13 14 15 16 17 18 19 20 21 22
000
FTUS43 KILX 281134
TAFDEC
TAF
KDEC 281134Z 2812/2912 12006KT P6SM SCT050 BKN120
     FM281400 14011KT P6SM VCSH OVC060
     FM282100 13013KT P6SM VCTS OVC050CB
     FM282300 13011KT P6SM VCSH OVC025
     FM290600 05006KT P6SM VCSH OVC010=

USA.gov is the U.S. government's official web portal to all federal, state and local government web resources and services.